sensor_id;sensor_type;location;lat;lon;timestamp;pressure;altitude;pressure_sealevel;temperature;humidity
46394;BME280;32099;53.588;10.176;2024-03-02T00:00:06;100122.97;;;9.12;87.44
46394;BME280;32099;53.588;10.176;2024-03-02T00:02:39;100126.88;;;9.09;87.94
46394;BME280;32099;53.588;10.176;2024-03-02T00:05:05;100124.56;;;9.06;88.03
46394;BME280;32099;53.588;10.176;2024-03-02T00:07:34;100127.66;;;9.03;87.96
46394;BME280;32099;53.588;10.176;2024-03-02T00:10:00;100131.75;;;8.99;87.96
46394;BME280;32099;53.588;10.176;2024-03-02T00:12:32;100117.34;;;8.99;88.53
46394;BME280;32099;53.588;10.176;2024-03-02T00:14:58;100123.13;;;8.95;88.22
46394;BME280;32099;53.588;10.176;2024-03-02T00:17:24;100119.38;;;8.97;88.17
46394;BME280;32099;53.588;10.176;2024-03-02T00:19:51;100121.91;;;8.98;88.09
46394;BME280;32099;53.588;10.176;2024-03-02T00:22:17;100121.66;;;8.93;89.21
46394;BME280;32099;53.588;10.176;2024-03-02T00:24:45;100118.25;;;8.91;88.33
46394;BME280;32099;53.588;10.176;2024-03-02T00:27:12;100114.31;;;8.93;89.11
46394;BME280;32099;53.588;10.176;2024-03-02T00:29:40;100107.19;;;8.92;88.48
46394;BME280;32099;53.588;10.176;2024-03-02T00:32:07;100107.19;;;8.92;89.13
46394;BME280;32099;53.588;10.176;2024-03-02T00:34:39;100108.41;;;8.90;88.89
46394;BME280;32099;53.588;10.176;2024-03-02T00:37:05;100104.22;;;8.87;88.80
46394;BME280;32099;53.588;10.176;2024-03-02T00:39:31;100100.63;;;8.87;88.80
46394;BME280;32099;53.588;10.176;2024-03-02T00:42:00;100096.06;;;8.87;89.16
46394;BME280;32099;53.588;10.176;2024-03-02T00:44:26;100098.31;;;8.84;89.40
46394;BME280;32099;53.588;10.176;2024-03-02T00:46:52;100097.28;;;8.85;88.98
46394;BME280;32099;53.588;10.176;2024-03-02T00:49:20;100044.31;;;8.51;89.38
46394;BME280;32099;53.588;10.176;2024-03-02T00:51:47;100090.97;;;8.84;88.73
46394;BME280;32099;53.588;10.176;2024-03-02T00:54:14;100100.81;;;8.85;88.99
46394;BME280;32099;53.588;10.176;2024-03-02T00:56:40;100098.09;;;8.85;88.30
46394;BME280;32099;53.588;10.176;2024-03-02T00:59:09;100089.59;;;8.88;88.32
46394;BME280;32099;53.588;10.176;2024-03-02T01:01:35;100096.88;;;8.88;88.98
46394;BME280;32099;53.588;10.176;2024-03-02T01:04:01;100096.25;;;8.86;88.63
46394;BME280;32099;53.588;10.176;2024-03-02T01:06:27;100091.53;;;8.79;89.38
46394;BME280;32099;53.588;10.176;2024-03-02T01:08:53;100092.78;;;8.77;89.78
46394;BME280;32099;53.588;10.176;2024-03-02T01:11:19;100091.25;;;8.74;90.59
46394;BME280;32099;53.588;10.176;2024-03-02T01:13:45;100090.41;;;8.74;89.63
46394;BME280;32099;53.588;10.176;2024-03-02T01:16:13;100089.75;;;8.72;90.82
46394;BME280;32099;53.588;10.176;2024-03-02T01:18:39;100108.31;;;8.68;90.26
46394;BME280;32099;53.588;10.176;2024-03-02T01:21:05;100107.50;;;8.68;90.32
46394;BME280;32099;53.588;10.176;2024-03-02T01:23:31;100104.38;;;8.71;89.94
46394;BME280;32099;53.588;10.176;2024-03-02T01:25:56;100100.63;;;8.72;89.90
46394;BME280;32099;53.588;10.176;2024-03-02T01:28:22;100098.09;;;8.70;90.20
46394;BME280;32099;53.588;10.176;2024-03-02T01:30:48;100095.19;;;8.72;89.52
46394;BME280;32099;53.588;10.176;2024-03-02T01:33:16;100098.94;;;8.71;90.12
46394;BME280;32099;53.588;10.176;2024-03-02T01:35:43;100097.25;;;8.70;90.78
46394;BME280;32099;53.588;10.176;2024-03-02T01:38:08;100087.41;;;8.69;91.12
46394;BME280;32099;53.588;10.176;2024-03-02T01:40:35;100092.00;;;8.68;89.71
46394;BME280;32099;53.588;10.176;2024-03-02T01:43:01;100085.91;;;8.66;90.74
46394;BME280;32099;53.588;10.176;2024-03-02T01:45:27;100087.81;;;8.66;90.63
46394;BME280;32099;53.588;10.176;2024-03-02T01:47:52;100086.56;;;8.68;90.25
46394;BME280;32099;53.588;10.176;2024-03-02T01:50:31;100091.66;;;8.71;89.70
46394;BME280;32099;53.588;10.176;2024-03-02T01:52:58;100088.72;;;8.73;90.33
46394;BME280;32099;53.588;10.176;2024-03-02T01:55:24;100087.25;;;8.70;90.12
46394;BME280;32099;53.588;10.176;2024-03-02T01:57:50;100087.25;;;8.70;91.01
46394;BME280;32099;53.588;10.176;2024-03-02T02:00:17;100083.41;;;8.64;90.13
46394;BME280;32099;53.588;10.176;2024-03-02T02:02:43;100084.63;;;8.62;92.04
46394;BME280;32099;53.588;10.176;2024-03-02T02:05:09;100089.75;;;8.57;91.02
46394;BME280;32099;53.588;10.176;2024-03-02T02:07:38;100079.34;;;8.60;90.37
46394;BME280;32099;53.588;10.176;2024-03-02T02:10:05;100080.22;;;8.61;91.06
46394;BME280;32099;53.588;10.176;2024-03-02T02:12:31;100082.94;;;8.61;90.47
46394;BME280;32099;53.588;10.176;2024-03-02T02:14:57;100084.97;;;8.59;90.84
46394;BME280;32099;53.588;10.176;2024-03-02T02:17:23;100077.00;;;8.57;91.23
46394;BME280;32099;53.588;10.176;2024-03-02T02:19:49;100079.91;;;8.56;90.72
46394;BME280;32099;53.588;10.176;2024-03-02T02:22:17;100079.91;;;8.56;90.34
46394;BME280;32099;53.588;10.176;2024-03-02T02:24:43;100079.25;;;8.54;90.89
46394;BME280;32099;53.588;10.176;2024-03-02T02:27:09;100073.53;;;8.48;91.13
46394;BME280;32099;53.588;10.176;2024-03-02T02:29:35;100072.69;;;8.48;91.04
46394;BME280;32099;53.588;10.176;2024-03-02T02:32:01;100077.75;;;8.51;91.26
46394;BME280;32099;53.588;10.176;2024-03-02T02:34:27;100074.22;;;8.51;90.69
46394;BME280;32099;53.588;10.176;2024-03-02T02:36:52;100067.25;;;8.48;91.66
46394;BME280;32099;53.588;10.176;2024-03-02T02:39:21;100066.75;;;8.44;91.42
46394;BME280;32099;53.588;10.176;2024-03-02T02:41:47;100073.22;;;8.43;91.21
46394;BME280;32099;53.588;10.176;2024-03-02T02:44:13;100073.56;;;8.40;92.03
46394;BME280;32099;53.588;10.176;2024-03-02T02:46:39;100067.50;;;8.38;91.74
46394;BME280;32099;53.588;10.176;2024-03-02T02:49:05;100064.78;;;8.38;92.06
46394;BME280;32099;53.588;10.176;2024-03-02T02:51:31;100057.47;;;8.39;91.27
46394;BME280;32099;53.588;10.176;2024-03-02T02:53:56;100058.97;;;8.41;91.84
46394;BME280;32099;53.588;10.176;2024-03-02T02:56:25;100060.00;;;8.40;91.75
46394;BME280;32099;53.588;10.176;2024-03-02T02:58:51;100051.00;;;8.40;91.12
46394;BME280;32099;53.588;10.176;2024-03-02T03:01:16;100050.34;;;8.38;91.25
46394;BME280;32099;53.588;10.176;2024-03-02T03:03:42;100050.53;;;8.36;92.06
46394;BME280;32099;53.588;10.176;2024-03-02T03:06:08;100047.38;;;8.32;91.65
46394;BME280;32099;53.588;10.176;2024-03-02T03:08:33;100049.41;;;8.30;92.00
46394;BME280;32099;53.588;10.176;2024-03-02T03:10:59;100065.06;;;8.28;92.00
46394;BME280;32099;53.588;10.176;2024-03-02T03:13:27;100044.91;;;8.23;91.73
46394;BME280;32099;53.588;10.176;2024-03-02T03:15:53;100054.06;;;8.22;92.02
46394;BME280;32099;53.588;10.176;2024-03-02T03:18:19;100048.44;;;8.23;92.15
46394;BME280;32099;53.588;10.176;2024-03-02T03:20:45;100048.66;;;8.22;92.10
46394;BME280;32099;53.588;10.176;2024-03-02T03:23:11;100051.56;;;8.20;91.76
46394;BME280;32099;53.588;10.176;2024-03-02T03:25:37;100052.56;;;8.19;93.21
46394;BME280;32099;53.588;10.176;2024-03-02T03:28:03;100050.22;;;8.16;92.18
46394;BME280;32099;53.588;10.176;2024-03-02T03:30:32;100053.81;;;8.16;92.92
46394;BME280;32099;53.588;10.176;2024-03-02T03:32:57;100053.97;;;8.15;92.37
46394;BME280;32099;53.588;10.176;2024-03-02T03:35:23;100056.88;;;8.13;93.13
46394;BME280;32099;53.588;10.176;2024-03-02T03:37:49;100045.00;;;8.14;91.84
46394;BME280;32099;53.588;10.176;2024-03-02T03:40:15;100049.00;;;8.18;92.03
46394;BME280;32099;53.588;10.176;2024-03-02T03:42:41;100047.97;;;8.19;92.77
46394;BME280;32099;53.588;10.176;2024-03-02T03:45:07;100048.19;;;8.18;92.67
46394;BME280;32099;53.588;10.176;2024-03-02T03:47:35;100050.41;;;8.14;92.07
46394;BME280;32099;53.588;10.176;2024-03-02T03:50:01;100052.47;;;8.12;92.35
46394;BME280;32099;53.588;10.176;2024-03-02T03:52:27;100046.84;;;8.14;91.36
46394;BME280;32099;53.588;10.176;2024-03-02T03:54:53;100052.13;;;8.15;91.19
46394;BME280;32099;53.588;10.176;2024-03-02T03:57:18;100050.88;;;8.18;91.66
46394;BME280;32099;53.588;10.176;2024-03-02T03:59:44;100065.97;;;8.21;91.71
46394;BME280;32099;53.588;10.176;2024-03-02T04:02:10;100055.97;;;8.21;91.85
46394;BME280;32099;53.588;10.176;2024-03-02T04:04:38;100041.88;;;8.17;92.18
46394;BME280;32099;53.588;10.176;2024-03-02T04:07:04;100044.59;;;8.17;91.75
46394;BME280;32099;53.588;10.176;2024-03-02T04:09:30;100045.66;;;8.16;91.37
46394;BME280;32099;53.588;10.176;2024-03-02T04:11:55;100038.53;;;8.15;91.90
46394;BME280;32099;53.588;10.176;2024-03-02T04:14:21;100039.16;;;8.17;91.73
46394;BME280;32099;53.588;10.176;2024-03-02T04:16:47;100036.94;;;8.21;90.96
46394;BME280;32099;53.588;10.176;2024-03-02T04:19:13;99983.59;;;7.90;91.32
46394;BME280;32099;53.588;10.176;2024-03-02T04:21:41;100035.25;;;8.20;91.44
46394;BME280;32099;53.588;10.176;2024-03-02T04:24:07;100039.09;;;8.26;91.25
46394;BME280;32099;53.588;10.176;2024-03-02T04:26:33;100036.00;;;8.29;90.93
46394;BME280;32099;53.588;10.176;2024-03-02T04:28:58;100025.53;;;8.26;91.03
46394;BME280;32099;53.588;10.176;2024-03-02T04:31:24;100032.00;;;8.25;91.41
46394;BME280;32099;53.588;10.176;2024-03-02T04:33:50;100033.84;;;8.24;90.42
46394;BME280;32099;53.588;10.176;2024-03-02T04:36:15;100033.47;;;8.27;90.42
46394;BME280;32099;53.588;10.176;2024-03-02T04:38:44;100039.38;;;8.31;90.01
46394;BME280;32099;53.588;10.176;2024-03-02T04:41:09;100041.28;;;8.30;90.73
46394;BME280;32099;53.588;10.176;2024-03-02T04:43:35;100038.34;;;8.32;90.11
46394;BME280;32099;53.588;10.176;2024-03-02T04:46:01;100044.25;;;8.36;90.49
46394;BME280;32099;53.588;10.176;2024-03-02T04:48:27;100042.41;;;8.36;89.81
46394;BME280;32099;53.588;10.176;2024-03-02T04:50:52;100040.50;;;8.37;89.77
46394;BME280;32099;53.588;10.176;2024-03-02T04:53:18;100047.84;;;8.36;89.52
46394;BME280;32099;53.588;10.176;2024-03-02T04:55:47;100042.75;;;8.33;89.68
46394;BME280;32099;53.588;10.176;2024-03-02T04:58:12;100040.91;;;8.33;89.94
46394;BME280;32099;53.588;10.176;2024-03-02T05:00:38;100048.75;;;8.28;90.30
46394;BME280;32099;53.588;10.176;2024-03-02T05:03:04;100052.28;;;8.29;89.98
46394;BME280;32099;53.588;10.176;2024-03-02T05:05:30;100046.03;;;8.28;89.32
46394;BME280;32099;53.588;10.176;2024-03-02T05:07:56;100051.47;;;8.28;89.36
46394;BME280;32099;53.588;10.176;2024-03-02T05:10:22;100048.94;;;8.27;89.51
46394;BME280;32099;53.588;10.176;2024-03-02T05:12:50;100052.50;;;8.27;89.71
46394;BME280;32099;53.588;10.176;2024-03-02T05:15:16;100058.13;;;8.26;89.92
46394;BME280;32099;53.588;10.176;2024-03-02T05:17:42;100051.81;;;8.25;88.69
46394;BME280;32099;53.588;10.176;2024-03-02T05:20:09;100058.13;;;8.26;88.87
46394;BME280;32099;53.588;10.176;2024-03-02T05:22:35;100048.44;;;8.23;89.61
46394;BME280;32099;53.588;10.176;2024-03-02T05:25:01;100057.66;;;8.22;89.35
46394;BME280;32099;53.588;10.176;2024-03-02T05:27:27;100049.00;;;8.18;88.98
46394;BME280;32099;53.588;10.176;2024-03-02T05:29:56;100053.41;;;8.19;89.41
46394;BME280;32099;53.588;10.176;2024-03-02T05:32:21;99996.22;;;7.83;89.34
46394;BME280;32099;53.588;10.176;2024-03-02T05:34:47;100054.81;;;8.15;89.58
46394;BME280;32099;53.588;10.176;2024-03-02T05:37:13;100046.38;;;8.10;89.89
46394;BME280;32099;53.588;10.176;2024-03-02T05:39:38;100052.56;;;8.04;90.81
46394;BME280;32099;53.588;10.176;2024-03-02T05:42:04;100052.06;;;8.00;90.06
46394;BME280;32099;53.588;10.176;2024-03-02T05:44:30;100042.97;;;7.93;90.27
46394;BME280;32099;53.588;10.176;2024-03-02T05:46:58;100050.09;;;7.94;90.54
46394;BME280;32099;53.588;10.176;2024-03-02T05:49:24;100048.75;;;7.90;91.17
46394;BME280;32099;53.588;10.176;2024-03-02T05:51:50;100048.75;;;7.90;90.26
46394;BME280;32099;53.588;10.176;2024-03-02T05:54:16;100049.78;;;7.89;91.26
46394;BME280;32099;53.588;10.176;2024-03-02T05:56:41;100058.94;;;7.88;90.83
46394;BME280;32099;53.588;10.176;2024-03-02T05:59:07;100058.31;;;7.86;91.50
46394;BME280;32099;53.588;10.176;2024-03-02T06:01:33;100046.59;;;7.85;91.83
46394;BME280;32099;53.588;10.176;2024-03-02T06:04:01;100044.72;;;7.86;90.46
46394;BME280;32099;53.588;10.176;2024-03-02T06:06:27;100047.06;;;7.89;90.02
46394;BME280;32099;53.588;10.176;2024-03-02T06:08:53;100048.59;;;7.92;90.50
46394;BME280;32099;53.588;10.176;2024-03-02T06:11:19;100040.59;;;7.90;90.11
46394;BME280;32099;53.588;10.176;2024-03-02T06:13:45;100046.69;;;7.92;90.77
46394;BME280;32099;53.588;10.176;2024-03-02T06:16:11;100048.09;;;7.88;90.95
46394;BME280;32099;53.588;10.176;2024-03-02T06:18:37;100044.91;;;7.84;90.81
46394;BME280;32099;53.588;10.176;2024-03-02T06:21:06;100054.25;;;7.82;90.85
46394;BME280;32099;53.588;10.176;2024-03-02T06:23:31;100061.38;;;7.83;90.65
46394;BME280;32099;53.588;10.176;2024-03-02T06:25:57;100063.91;;;7.84;91.37
46394;BME280;32099;53.588;10.176;2024-03-02T06:28:23;100064.91;;;7.83;91.29
46394;BME280;32099;53.588;10.176;2024-03-02T06:30:49;100058.84;;;7.81;91.41
46394;BME280;32099;53.588;10.176;2024-03-02T06:33:14;100062.41;;;7.82;91.88
46394;BME280;32099;53.588;10.176;2024-03-02T06:35:40;100068.66;;;7.82;91.77
46394;BME280;32099;53.588;10.176;2024-03-02T06:38:09;100074.75;;;7.84;90.45
46394;BME280;32099;53.588;10.176;2024-03-02T06:40:34;100074.19;;;7.89;90.88
46394;BME280;32099;53.588;10.176;2024-03-02T06:43:00;100010.00;;;7.58;90.76
46394;BME280;32099;53.588;10.176;2024-03-02T06:45:26;100068.91;;;7.96;90.60
46394;BME280;32099;53.588;10.176;2024-03-02T06:47:51;100070.97;;;7.94;90.42
46394;BME280;32099;53.588;10.176;2024-03-02T06:50:17;100057.41;;;7.94;91.00
46394;BME280;32099;53.588;10.176;2024-03-02T06:52:43;100068.25;;;7.94;90.47
46394;BME280;32099;53.588;10.176;2024-03-02T06:55:11;100076.56;;;7.92;90.38
46394;BME280;32099;53.588;10.176;2024-03-02T06:57:37;100073.19;;;7.90;90.59
46394;BME280;32099;53.588;10.176;2024-03-02T07:00:03;100070.47;;;7.90;91.11
46394;BME280;32099;53.588;10.176;2024-03-02T07:02:29;100069.28;;;7.93;90.70
46394;BME280;32099;53.588;10.176;2024-03-02T07:04:56;100072.81;;;7.93;90.38
46394;BME280;32099;53.588;10.176;2024-03-02T07:07:22;100017.31;;;7.57;91.48
46394;BME280;32099;53.588;10.176;2024-03-02T07:09:47;100073.56;;;7.87;91.55
46394;BME280;32099;53.588;10.176;2024-03-02T07:12:16;100075.41;;;7.86;91.29
46394;BME280;32099;53.588;10.176;2024-03-02T07:14:41;100077.13;;;7.87;91.19
46394;BME280;32099;53.588;10.176;2024-03-02T07:17:07;100079.00;;;7.87;91.77
46394;BME280;32099;53.588;10.176;2024-03-02T07:19:33;100070.84;;;7.87;91.14
46394;BME280;32099;53.588;10.176;2024-03-02T07:21:59;100072.16;;;7.91;91.72
46394;BME280;32099;53.588;10.176;2024-03-02T07:24:25;100076.41;;;7.94;91.51
46394;BME280;32099;53.588;10.176;2024-03-02T07:26:51;100074.72;;;7.93;91.21
46394;BME280;32099;53.588;10.176;2024-03-02T07:29:19;100086.22;;;7.95;91.31
46394;BME280;32099;53.588;10.176;2024-03-02T07:31:45;100098.41;;;7.99;91.72
46394;BME280;32099;53.588;10.176;2024-03-02T07:34:11;100094.31;;;8.03;90.75
46394;BME280;32099;53.588;10.176;2024-03-02T07:36:37;100098.72;;;8.04;90.84
46394;BME280;32099;53.588;10.176;2024-03-02T07:39:02;100103.28;;;8.03;90.42
46394;BME280;32099;53.588;10.176;2024-03-02T07:41:28;100102.56;;;8.10;90.63
46394;BME280;32099;53.588;10.176;2024-03-02T07:43:54;100107.25;;;8.16;91.92
46394;BME280;32099;53.588;10.176;2024-03-02T07:46:22;100108.59;;;8.20;91.14
46394;BME280;32099;53.588;10.176;2024-03-02T07:48:48;100111.59;;;8.25;90.77
46394;BME280;32099;53.588;10.176;2024-03-02T07:51:14;100110.19;;;8.29;90.73
46394;BME280;32099;53.588;10.176;2024-03-02T07:53:39;100117.59;;;8.36;90.78
46394;BME280;32099;53.588;10.176;2024-03-02T07:56:05;100116.03;;;8.41;90.86
46394;BME280;32099;53.588;10.176;2024-03-02T07:58:31;100115.66;;;8.44;90.34
46394;BME280;32099;53.588;10.176;2024-03-02T08:00:57;100122.47;;;8.48;89.94
46394;BME280;32099;53.588;10.176;2024-03-02T08:03:25;100117.28;;;8.54;89.67
46394;BME280;32099;53.588;10.176;2024-03-02T08:05:51;100113.00;;;8.59;89.87
46394;BME280;32099;53.588;10.176;2024-03-02T08:08:17;100118.72;;;8.64;89.40
46394;BME280;32099;53.588;10.176;2024-03-02T08:10:42;100122.22;;;8.73;88.42
46394;BME280;32099;53.588;10.176;2024-03-02T08:13:08;100122.94;;;8.82;88.62
46394;BME280;32099;53.588;10.176;2024-03-02T08:15:34;100118.84;;;8.86;87.71
46394;BME280;32099;53.588;10.176;2024-03-02T08:17:59;100136.00;;;9.02;88.36
46394;BME280;32099;53.588;10.176;2024-03-02T08:20:28;100138.63;;;9.10;88.33
46394;BME280;32099;53.588;10.176;2024-03-02T08:22:54;100138.13;;;9.21;86.35
46394;BME280;32099;53.588;10.176;2024-03-02T08:25:19;100140.75;;;9.30;86.83
46394;BME280;32099;53.588;10.176;2024-03-02T08:27:45;100148.63;;;9.39;86.18
46394;BME280;32099;53.588;10.176;2024-03-02T08:30:11;100139.69;;;9.46;85.57
46394;BME280;32099;53.588;10.176;2024-03-02T08:32:38;100147.94;;;9.52;85.16
46394;BME280;32099;53.588;10.176;2024-03-02T08:35:04;100139.19;;;9.57;85.56
46394;BME280;32099;53.588;10.176;2024-03-02T08:37:34;100143.69;;;9.65;86.13
46394;BME280;32099;53.588;10.176;2024-03-02T08:40:01;100146.50;;;9.71;85.38
46394;BME280;32099;53.588;10.176;2024-03-02T08:42:27;100152.59;;;9.73;83.99
46394;BME280;32099;53.588;10.176;2024-03-02T08:44:53;100159.34;;;9.78;83.36
46394;BME280;32099;53.588;10.176;2024-03-02T08:47:19;100152.00;;;9.78;82.60
46394;BME280;32099;53.588;10.176;2024-03-02T08:49:45;100150.41;;;9.84;83.57
46394;BME280;32099;53.588;10.176;2024-03-02T08:52:11;100152.75;;;9.87;82.51
46394;BME280;32099;53.588;10.176;2024-03-02T08:54:39;100146.72;;;9.92;81.82
46394;BME280;32099;53.588;10.176;2024-03-02T08:57:05;100151.97;;;9.93;82.38
46394;BME280;32099;53.588;10.176;2024-03-02T08:59:31;100147.81;;;9.97;82.98
46394;BME280;32099;53.588;10.176;2024-03-02T09:01:57;100158.56;;;10.06;82.67
46394;BME280;32099;53.588;10.176;2024-03-02T09:04:24;100156.13;;;10.11;82.37
46394;BME280;32099;53.588;10.176;2024-03-02T09:06:49;100151.13;;;10.14;80.91
46394;BME280;32099;53.588;10.176;2024-03-02T09:09:15;100150.09;;;10.15;82.49
46394;BME280;32099;53.588;10.176;2024-03-02T09:11:43;100148.03;;;10.17;82.07
46394;BME280;32099;53.588;10.176;2024-03-02T09:14:11;100148.47;;;10.21;82.07
46394;BME280;32099;53.588;10.176;2024-03-02T09:16:37;100149.56;;;10.27;81.71
46394;BME280;32099;53.588;10.176;2024-03-02T09:19:02;100151.31;;;10.34;81.23
46394;BME280;32099;53.588;10.176;2024-03-02T09:21:28;100162.50;;;10.40;80.06
46394;BME280;32099;53.588;10.176;2024-03-02T09:23:54;100164.63;;;10.44;81.41
46394;BME280;32099;53.588;10.176;2024-03-02T09:26:20;100158.19;;;10.52;80.56
46394;BME280;32099;53.588;10.176;2024-03-02T09:28:48;100161.81;;;10.59;81.36
46394;BME280;32099;53.588;10.176;2024-03-02T09:31:14;100164.50;;;10.81;80.29
46394;BME280;32099;53.588;10.176;2024-03-02T09:33:39;100155.84;;;11.06;80.18
46394;BME280;32099;53.588;10.176;2024-03-02T09:36:05;100162.69;;;11.30;79.56
46394;BME280;32099;53.588;10.176;2024-03-02T09:38:31;100156.50;;;11.50;77.08
46394;BME280;32099;53.588;10.176;2024-03-02T09:40:57;100161.59;;;11.66;77.24
46394;BME280;32099;53.588;10.176;2024-03-02T09:43:23;100164.16;;;11.81;74.24
46394;BME280;32099;53.588;10.176;2024-03-02T09:45:52;100172.59;;;11.93;75.42
46394;BME280;32099;53.588;10.176;2024-03-02T09:48:18;100165.31;;;12.00;74.19
46394;BME280;32099;53.588;10.176;2024-03-02T09:50:44;100171.59;;;12.01;75.73
46394;BME280;32099;53.588;10.176;2024-03-02T09:53:10;100163.19;;;12.02;75.84
46394;BME280;32099;53.588;10.176;2024-03-02T09:55:37;100169.28;;;12.04;76.13
46394;BME280;32099;53.588;10.176;2024-03-02T09:58:02;100167.63;;;12.10;75.10
46394;BME280;32099;53.588;10.176;2024-03-02T10:00:28;100168.25;;;12.12;75.06
46394;BME280;32099;53.588;10.176;2024-03-02T10:02:57;100159.03;;;12.20;75.32
46394;BME280;32099;53.588;10.176;2024-03-02T10:05:23;100164.50;;;12.33;74.76
46394;BME280;32099;53.588;10.176;2024-03-02T10:07:52;100157.38;;;12.46;73.91
46394;BME280;32099;53.588;10.176;2024-03-02T10:10:24;100158.19;;;12.60;72.20
46394;BME280;32099;53.588;10.176;2024-03-02T10:13:03;100162.63;;;12.68;70.59
46394;BME280;32099;53.588;10.176;2024-03-02T10:15:29;100157.78;;;12.70;73.78
46394;BME280;32099;53.588;10.176;2024-03-02T10:17:57;100164.72;;;12.79;71.90
46394;BME280;32099;53.588;10.176;2024-03-02T10:20:24;100160.94;;;12.87;71.55
46394;BME280;32099;53.588;10.176;2024-03-02T10:22:50;100162.56;;;12.94;71.16
46394;BME280;32099;53.588;10.176;2024-03-02T10:25:27;100165.09;;;13.03;71.65
46394;BME280;32099;53.588;10.176;2024-03-02T10:27:56;100173.72;;;13.13;71.23
46394;BME280;32099;53.588;10.176;2024-03-02T10:30:22;100172.66;;;13.21;70.41
46394;BME280;32099;53.588;10.176;2024-03-02T10:32:48;100164.63;;;13.26;67.18
46394;BME280;32099;53.588;10.176;2024-03-02T10:35:17;100169.03;;;13.34;70.25
46394;BME280;32099;53.588;10.176;2024-03-02T10:37:43;100170.50;;;13.43;71.10
46394;BME280;32099;53.588;10.176;2024-03-02T10:40:10;100168.78;;;13.49;70.61
46394;BME280;32099;53.588;10.176;2024-03-02T10:42:36;100173.19;;;13.56;67.53
46394;BME280;32099;53.588;10.176;2024-03-02T10:45:04;100168.78;;;13.49;67.51
46394;BME280;32099;53.588;10.176;2024-03-02T10:47:33;100162.69;;;13.47;70.15
46394;BME280;32099;53.588;10.176;2024-03-02T10:50:01;100165.22;;;13.48;70.45
46394;BME280;32099;53.588;10.176;2024-03-02T10:52:32;100161.59;;;13.54;71.00
46394;BME280;32099;53.588;10.176;2024-03-02T10:54:58;100166.03;;;13.55;69.74
46394;BME280;32099;53.588;10.176;2024-03-02T10:57:23;100169.19;;;13.52;68.07
46394;BME280;32099;53.588;10.176;2024-03-02T10:59:52;100177.84;;;13.49;69.50
46394;BME280;32099;53.588;10.176;2024-03-02T11:02:21;100137.25;;;13.26;67.28
46394;BME280;32099;53.588;10.176;2024-03-02T11:04:49;100175.34;;;13.41;70.39
46394;BME280;32099;53.588;10.176;2024-03-02T11:07:15;100180.19;;;13.39;67.65
46394;BME280;32099;53.588;10.176;2024-03-02T11:09:51;100170.47;;;13.36;71.07
46394;BME280;32099;53.588;10.176;2024-03-02T11:12:23;100179.97;;;13.40;71.29
46394;BME280;32099;53.588;10.176;2024-03-02T11:14:54;100176.81;;;13.44;70.46
46394;BME280;32099;53.588;10.176;2024-03-02T11:17:21;100177.00;;;13.49;70.45
46394;BME280;32099;53.588;10.176;2024-03-02T11:19:48;100179.53;;;13.57;70.30
46394;BME280;32099;53.588;10.176;2024-03-02T11:22:15;100181.38;;;13.63;70.54
46394;BME280;32099;53.588;10.176;2024-03-02T11:24:50;100182.44;;;13.62;69.78
46394;BME280;32099;53.588;10.176;2024-03-02T11:27:58;100173.19;;;13.56;67.71
46394;BME280;32099;53.588;10.176;2024-03-02T11:33:15;100182.72;;;13.34;65.84
46394;BME280;32099;53.588;10.176;2024-03-02T11:35:49;100180.84;;;13.27;66.03
46394;BME280;32099;53.588;10.176;2024-03-02T11:38:15;100181.03;;;13.26;69.49
46394;BME280;32099;53.588;10.176;2024-03-02T11:40:43;100189.88;;;13.28;70.45
46394;BME280;32099;53.588;10.176;2024-03-02T11:43:09;100186.09;;;13.29;69.64
46394;BME280;32099;53.588;10.176;2024-03-02T11:45:36;100182.72;;;13.34;69.51
46394;BME280;32099;53.588;10.176;2024-03-02T11:48:04;100011.22;;;12.15;65.63
46394;BME280;32099;53.588;10.176;2024-03-02T11:50:33;100176.41;;;13.33;69.82
46394;BME280;32099;53.588;10.176;2024-03-02T11:53:01;100173.88;;;13.32;68.03
46394;BME280;32099;53.588;10.176;2024-03-02T11:55:27;100181.69;;;13.28;69.14
46394;BME280;32099;53.588;10.176;2024-03-02T11:57:58;100185.47;;;13.27;69.01
46394;BME280;32099;53.588;10.176;2024-03-02T12:00:26;100181.69;;;13.28;69.99
46394;BME280;32099;53.588;10.176;2024-03-02T12:03:00;100180.84;;;13.27;69.91
46394;BME280;32099;53.588;10.176;2024-03-02T12:05:26;100179.78;;;13.29;69.52
46394;BME280;32099;53.588;10.176;2024-03-02T12:07:55;100186.31;;;13.27;67.87
46394;BME280;32099;53.588;10.176;2024-03-02T12:10:22;100184.63;;;13.26;69.57
46394;BME280;32099;53.588;10.176;2024-03-02T12:12:54;100180.22;;;13.25;69.29
46394;BME280;32099;53.588;10.176;2024-03-02T12:15:25;100177.25;;;13.27;69.29
46394;BME280;32099;53.588;10.176;2024-03-02T12:17:52;100184.63;;;13.26;69.71
46394;BME280;32099;53.588;10.176;2024-03-02T12:20:19;100181.69;;;13.28;67.48
46394;BME280;32099;53.588;10.176;2024-03-02T12:22:47;100181.03;;;13.26;68.84
46394;BME280;32099;53.588;10.176;2024-03-02T12:25:15;100176.63;;;13.25;69.45
46394;BME280;32099;53.588;10.176;2024-03-02T12:27:42;100174.09;;;13.23;69.67
46394;BME280;32099;53.588;10.176;2024-03-02T12:30:14;100177.91;;;13.22;69.40
46394;BME280;32099;53.588;10.176;2024-03-02T12:32:42;100178.53;;;13.24;70.09
46394;BME280;32099;53.588;10.176;2024-03-02T12:35:08;100169.03;;;13.34;70.77
46394;BME280;32099;53.588;10.176;2024-03-02T12:37:41;100170.28;;;13.38;67.60
46394;BME280;32099;53.588;10.176;2024-03-02T12:40:09;100165.25;;;13.41;70.53
46394;BME280;32099;53.588;10.176;2024-03-02T12:42:35;100170.69;;;13.48;69.67
46394;BME280;32099;53.588;10.176;2024-03-02T12:45:01;100172.16;;;13.51;68.47
46394;BME280;32099;53.588;10.176;2024-03-02T12:47:29;100168.75;;;13.55;70.79